Time;durP1;ratioP1;P1;durP2;ratioP2;P2;SDS_P1;SDS_P2;PMS_P1;PMS_P2;Temp;Humidity;BMP_temperature;BMP_pressure;BME280_temperature;BME280_humidity;BME280_pressure;Samples;Min_cycle;Max_cycle;Signal;HPM_P1;HPM_P2
2023/01/19 00:02:18;;;;;;;;;;;;;;;-2.98;91.56;95370.28;5073753;28;19966;-73
2023/01/19 00:04:44;;;;;;;;;;;;;;;-3.01;91.44;95383.44;5073840;28;19954;-73
2023/01/19 00:07:10;;;;;;;;;;;;;;;-3.02;91.07;95381.81;5073579;28;19951;-72
2023/01/19 00:09:45;;;;;;;;;;;;;;;-3.03;91.41;95375.91;5073762;28;19953;-73
2023/01/19 00:12:10;;;;;;;;;;;;;;;-3.03;91.77;95385.38;5074224;28;19961;-73
2023/01/19 00:14:36;;;;;;;;;;;;;;;-3.04;91.69;95388.88;5073493;28;19954;-72
2023/01/19 00:17:02;;;;;;;;;;;;;;;-3.07;91.73;95395.13;5072721;28;20413;-72
2023/01/19 00:19:28;;;;;;;;;;;;;;;-3.11;91.94;95404.09;5073622;28;20445;-73
2023/01/19 00:21:54;;;;;;;;;;;;;;;-3.13;91.86;95388.06;5072937;28;19951;-72
2023/01/19 00:24:20;;;;;;;;;;;;;;;-3.14;91.92;95402.66;5073453;28;19946;-73
2023/01/19 00:26:46;;;;;;;;;;;;;;;-3.16;91.19;95388.41;5072957;28;20029;-72
2023/01/19 00:29:13;;;;;;;;;;;;;;;-3.19;91.04;95389.53;5073731;28;19953;-72
2023/01/19 00:31:38;;;;;;;;;;;;;;;-3.20;90.79;95382.00;5073576;28;19964;-72
2023/01/19 00:34:05;;;;;;;;;;;;;;;-3.23;90.88;95375.44;5073291;28;19990;-72
2023/01/19 00:36:31;;;;;;;;;;;;;;;-3.23;90.97;95387.41;5073557;28;20400;-72
2023/01/19 00:38:57;;;;;;;;;;;;;;;-3.24;90.58;95383.25;5073651;28;20327;-72
2023/01/19 00:42:38;;;;;;;;;;;;;;;-3.26;91.05;95386.78;5073022;28;20012;-72
2023/01/19 00:44:10;;;;;;;;;;;;;;;-3.27;90.57;95386.94;5073337;28;19955;-72
2023/01/19 00:46:36;;;;;;;;;;;;;;;-3.27;90.97;95392.06;5073256;28;19943;-72
2023/01/19 00:49:02;;;;;;;;;;;;;;;-3.29;90.96;95392.22;5073594;28;19950;-72
2023/01/19 00:51:28;;;;;;;;;;;;;;;-3.31;90.67;95391.59;5073670;28;20414;-72
2023/01/19 00:53:53;;;;;;;;;;;;;;;-3.32;90.79;95394.28;5073625;28;19996;-72
2023/01/19 00:56:19;;;;;;;;;;;;;;;-3.33;90.83;95403.75;5073281;28;19998;-73
2023/01/19 00:58:45;;;;;;;;;;;;;;;-3.37;90.31;95399.91;5073093;28;19954;-73
2023/01/19 01:01:11;;;;;;;;;;;;;;;-3.39;90.86;95409.50;5073580;28;19959;-73
2023/01/19 01:03:37;;;;;;;;;;;;;;;-3.43;90.08;95400.53;5073099;28;19951;-73
2023/01/19 01:06:05;;;;;;;;;;;;;;;-3.46;90.30;95400.84;5073252;28;19956;-72
2023/01/19 01:08:32;;;;;;;;;;;;;;;-3.50;90.23;95399.56;5073166;28;19957;-72
2023/01/19 01:10:58;;;;;;;;;;;;;;;-3.53;90.25;95403.25;5075139;28;19956;-72
2023/01/19 01:13:24;;;;;;;;;;;;;;;-3.55;90.77;95400.03;5077036;28;20436;-73
2023/01/19 01:15:53;;;;;;;;;;;;;;;-3.54;91.11;95406.75;5077255;28;20394;-73
2023/01/19 01:18:20;;;;;;;;;;;;;;;-3.54;90.55;95409.31;5077066;28;19953;-73
2023/01/19 01:20:46;;;;;;;;;;;;;;;-3.55;91.13;95407.72;5077379;28;20305;-73
2023/01/19 01:23:12;;;;;;;;;;;;;;;-3.56;91.28;95413.78;5076764;28;19987;-73
2023/01/19 01:25:38;;;;;;;;;;;;;;;-3.57;91.17;95411.38;5076933;28;19956;-72
2023/01/19 01:28:07;;;;;;;;;;;;;;;-3.58;91.14;95415.69;5076812;28;19958;-73
2023/01/19 01:30:34;;;;;;;;;;;;;;;-3.61;90.64;95413.47;5076033;28;19949;-73
2023/01/19 01:33:00;;;;;;;;;;;;;;;-3.61;90.39;95416.03;5076924;28;19943;-73
2023/01/19 01:35:26;;;;;;;;;;;;;;;-3.61;90.67;95421.16;5076680;28;19954;-73
2023/01/19 01:37:52;;;;;;;;;;;;;;;-3.63;90.65;95420.50;5076848;28;19949;-73
2023/01/19 01:40:18;;;;;;;;;;;;;;;-3.63;90.76;95422.25;5076450;28;19962;-72
2023/01/19 01:42:44;;;;;;;;;;;;;;;-3.65;90.66;95424.16;5076756;28;19978;-73
2023/01/19 01:45:22;;;;;;;;;;;;;;;-3.67;90.34;95416.66;5076238;28;20397;-73
2023/01/19 01:47:48;;;;;;;;;;;;;;;-3.67;90.69;95425.13;5076824;28;19953;-73
2023/01/19 01:50:34;;;;;;;;;;;;;;;-3.66;90.87;95428.47;5076459;28;19941;-72
2023/01/19 01:53:03;;;;;;;;;;;;;;;-3.67;90.58;95421.78;5076005;28;19958;-73
2023/01/19 01:55:30;;;;;;;;;;;;;;;-3.66;91.18;95425.91;5076393;28;19953;-73
2023/01/19 01:57:57;;;;;;;;;;;;;;;-3.68;90.73;95420.94;5076317;28;19973;-73
2023/01/19 02:00:24;;;;;;;;;;;;;;;-3.69;90.83;95421.91;5076318;28;19957;-73
2023/01/19 02:02:50;;;;;;;;;;;;;;;-3.70;90.85;95425.41;5076152;28;19967;-73
2023/01/19 02:05:19;;;;;;;;;;;;;;;-3.70;90.92;95424.63;5075026;28;20407;-73
2023/01/19 02:13:19;;;;;;;;;;;;;;;-3.74;90.81;95424.16;5075994;28;19960;-73
2023/01/19 02:15:46;;;;;;;;;;;;;;;-3.73;90.76;95417.25;5076110;28;19966;-73
2023/01/19 02:18:13;;;;;;;;;;;;;;;-3.74;91.08;95418.19;5076129;28;19953;-74
2023/01/19 02:20:41;;;;;;;;;;;;;;;-3.73;90.66;95407.81;5075803;28;19957;-73
2023/01/19 02:23:14;;;;;;;;;;;;;;;-3.74;90.73;95406.22;5075439;28;19967;-73
2023/01/19 02:25:40;;;;;;;;;;;;;;;-3.72;90.86;95414.53;5075919;28;19950;-73
2023/01/19 02:28:06;;;;;;;;;;;;;;;-3.73;91.23;95412.13;5075989;28;19959;-73
2023/01/19 02:30:34;;;;;;;;;;;;;;;-3.75;90.56;95407.16;5075535;28;19957;-74
2023/01/19 02:33:00;;;;;;;;;;;;;;;-3.78;90.06;95412.59;5075639;28;19948;-73
2023/01/19 02:35:26;;;;;;;;;;;;;;;-3.80;90.38;95413.69;5060169;28;19969;-73
2023/01/19 02:37:52;;;;;;;;;;;;;;;-3.83;90.32;95408.91;5075985;28;20396;-73
2023/01/19 02:40:20;;;;;;;;;;;;;;;-3.85;90.55;95418.50;5073377;28;19957;-73
2023/01/19 02:42:50;;;;;;;;;;;;;;;-3.85;90.69;95426.97;5075620;28;19973;-73
2023/01/19 02:45:18;;;;;;;;;;;;;;;-3.85;90.82;95428.72;5075376;28;19959;-73
2023/01/19 02:47:46;;;;;;;;;;;;;;;-3.84;90.88;95445.69;5075396;28;19949;-73
2023/01/19 02:50:30;;;;;;;;;;;;;;;-3.84;91.39;95445.69;5075322;28;19954;-72
2023/01/19 02:53:05;;;;;;;;;;;;;;;-3.82;91.41;95443.78;5075141;28;19951;-73
2023/01/19 02:55:31;;;;;;;;;;;;;;;-3.82;91.03;95430.97;5075229;28;19969;-73
2023/01/19 02:58:08;;;;;;;;;;;;;;;-3.80;91.27;95441.88;5075208;28;19946;-72
2023/01/19 03:00:40;;;;;;;;;;;;;;;-3.80;91.35;95445.25;5073816;28;19955;-73
2023/01/19 03:03:18;;;;;;;;;;;;;;;-3.80;91.42;95437.56;5075224;28;19963;-72
2023/01/19 03:05:47;;;;;;;;;;;;;;;-3.82;91.32;95433.53;5063925;28;19940;-72
2023/01/19 03:08:22;;;;;;;;;;;;;;;-3.83;91.20;95427.63;5074869;28;20429;-72
2023/01/19 03:10:51;;;;;;;;;;;;;;;-3.84;90.76;95430.31;5075458;28;19972;-73
2023/01/19 03:13:40;;;;;;;;;;;;;;;-3.86;91.22;95425.38;5074723;28;19959;-73
2023/01/19 03:16:12;;;;;;;;;;;;;;;-3.87;90.89;95434.00;5074546;28;19956;-73
2023/01/19 03:18:41;;;;;;;;;;;;;;;-3.90;90.79;95437.69;5074882;28;20323;-73
2023/01/19 03:21:09;;;;;;;;;;;;;;;-3.90;90.48;95436.88;5074529;28;19947;-73
2023/01/19 03:23:37;;;;;;;;;;;;;;;-3.92;91.00;95429.34;5074786;28;20323;-73
2023/01/19 03:26:04;;;;;;;;;;;;;;;-3.92;90.84;95426.78;5074641;28;19946;-73
2023/01/19 03:28:31;;;;;;;;;;;;;;;-3.92;91.04;95431.91;5074494;28;19946;-73
2023/01/19 03:30:59;;;;;;;;;;;;;;;-3.95;91.42;95450.16;5074548;28;19942;-73
2023/01/19 03:33:31;;;;;;;;;;;;;;;-3.96;91.22;95443.41;5073807;28;20413;-73
2023/01/19 03:36:02;;;;;;;;;;;;;;;-3.99;91.64;95442.91;5074164;28;19947;-73
2023/01/19 03:38:30;;;;;;;;;;;;;;;-4.02;91.79;95456.03;5074750;28;19946;-73
2023/01/19 03:40:58;;;;;;;;;;;;;;;-4.06;92.17;95452.16;5074327;28;20404;-73
2023/01/19 03:43:25;;;;;;;;;;;;;;;-4.11;92.39;95455.19;5074112;28;19977;-73
2023/01/19 03:45:52;;;;;;;;;;;;;;;-4.10;92.26;95461.88;5073991;28;19948;-73
2023/01/19 03:48:19;;;;;;;;;;;;;;;-4.10;92.84;95464.44;5074547;28;19967;-73
2023/01/19 03:50:45;;;;;;;;;;;;;;;-4.16;92.72;95454.81;5074354;28;19960;-73
2023/01/19 03:53:12;;;;;;;;;;;;;;;-4.19;93.66;95468.72;5073936;28;20417;-73
2023/01/19 03:55:40;;;;;;;;;;;;;;;-4.24;93.23;95470.94;5074033;28;20261;-73
2023/01/19 03:58:06;;;;;;;;;;;;;;;-4.26;93.56;95466.91;5074129;28;19942;-73
2023/01/19 04:00:32;;;;;;;;;;;;;;;-4.26;93.75;95477.97;5073853;28;20393;-73
2023/01/19 04:02:59;;;;;;;;;;;;;;;-4.22;94.07;95473.31;5073167;28;20320;-73
2023/01/19 04:05:24;;;;;;;;;;;;;;;-4.18;93.69;95472.06;5073580;28;19955;-73
2023/01/19 04:07:51;;;;;;;;;;;;;;;-4.14;94.06;95478.50;5073822;28;19956;-72
2023/01/19 04:10:17;;;;;;;;;;;;;;;-4.08;93.96;95477.91;5073972;28;19962;-72
2023/01/19 04:12:43;;;;;;;;;;;;;;;-4.03;94.19;95485.94;5072616;28;20407;-73
2023/01/19 04:15:09;;;;;;;;;;;;;;;-3.98;94.18;95480.38;5073841;28;19955;-73
2023/01/19 04:17:35;;;;;;;;;;;;;;;-3.93;94.14;95483.28;5073918;28;19971;-73
2023/01/19 04:20:01;;;;;;;;;;;;;;;-3.93;94.08;95483.28;5072540;28;19958;-73
2023/01/19 04:22:27;;;;;;;;;;;;;;;-3.95;94.14;95485.19;5073396;28;20050;-73
2023/01/19 04:24:54;;;;;;;;;;;;;;;-3.95;94.63;95495.41;5073726;28;20294;-73
2023/01/19 04:27:20;;;;;;;;;;;;;;;-3.95;94.07;95491.13;5073618;28;19954;-73
2023/01/19 04:29:46;;;;;;;;;;;;;;;-3.91;94.11;95487.28;5073874;28;19954;-73
2023/01/19 04:32:12;;;;;;;;;;;;;;;-3.90;93.89;95488.91;5072274;28;20376;-73
2023/01/19 04:34:38;;;;;;;;;;;;;;;-3.88;93.96;95489.56;5073822;28;19954;-73
2023/01/19 04:37:04;;;;;;;;;;;;;;;-3.88;93.42;95486.19;5073492;28;19955;-73
2023/01/19 04:39:30;;;;;;;;;;;;;;;-3.87;93.35;95483.47;5073840;28;20380;-73
2023/01/19 04:41:56;;;;;;;;;;;;;;;-3.84;93.76;95484.13;5072016;28;20012;-75
2023/01/19 04:44:22;;;;;;;;;;;;;;;-3.88;93.37;95481.06;5073395;28;19957;-73
2023/01/19 04:46:50;;;;;;;;;;;;;;;-3.91;92.82;95483.91;5079944;28;20454;-73
2023/01/19 04:49:16;;;;;;;;;;;;;;;-3.92;93.25;95478.00;5079890;28;19950;-73
2023/01/19 04:51:42;;;;;;;;;;;;;;;-3.91;92.83;95478.81;5079893;28;19958;-73
2023/01/19 04:54:08;;;;;;;;;;;;;;;-3.90;92.43;95477.84;5079913;28;20048;-73
2023/01/19 04:56:34;;;;;;;;;;;;;;;-3.90;92.64;95480.41;5080180;28;20419;-73
2023/01/19 04:59:00;;;;;;;;;;;;;;;-3.93;91.98;95476.38;5079824;28;20363;-72
2023/01/19 05:01:26;;;;;;;;;;;;;;;-3.95;92.28;95483.44;5079965;28;19951;-72
2023/01/19 05:03:52;;;;;;;;;;;;;;;-3.94;92.61;95481.69;5080373;28;19956;-72
2023/01/19 05:06:18;;;;;;;;;;;;;;;-3.94;92.39;95482.47;5080015;28;19972;-72
2023/01/19 05:08:44;;;;;;;;;;;;;;;-3.91;92.31;95484.72;5079945;28;19945;-73
2023/01/19 05:11:10;;;;;;;;;;;;;;;-3.94;92.25;95479.91;5079711;28;20084;-73
2023/01/19 05:13:36;;;;;;;;;;;;;;;-3.93;92.38;95483.28;5080116;28;19992;-73
2023/01/19 05:16:02;;;;;;;;;;;;;;;-3.94;92.23;95479.13;5079779;28;19955;-72
2023/01/19 05:18:28;;;;;;;;;;;;;;;-3.94;91.98;95485.03;5079609;28;19954;-73
2023/01/19 05:20:54;;;;;;;;;;;;;;;-3.96;91.35;95475.91;5079901;28;19953;-72
2023/01/19 05:23:20;;;;;;;;;;;;;;;-3.95;91.44;95474.94;5080135;28;19980;-72
2023/01/19 05:25:46;;;;;;;;;;;;;;;-3.96;91.40;95481.81;5079732;28;19946;-73
2023/01/19 05:28:12;;;;;;;;;;;;;;;-3.95;91.21;95488.56;5079642;28;19953;-72
2023/01/19 05:30:38;;;;;;;;;;;;;;;-3.96;91.11;95488.72;5079780;28;19955;-72
2023/01/19 05:33:04;;;;;;;;;;;;;;;-3.99;90.98;95489.00;5079652;28;19947;-72
2023/01/19 05:35:30;;;;;;;;;;;;;;;-4.00;90.64;95485.63;5079700;28;19953;-72
2023/01/19 05:37:55;;;;;;;;;;;;;;;-4.01;91.10;95493.47;5079737;28;19949;-72
2023/01/19 05:40:22;;;;;;;;;;;;;;;-4.04;90.60;95494.56;5079347;28;19953;-73
2023/01/19 05:42:47;;;;;;;;;;;;;;;-4.07;90.80;95494.88;5079439;28;19991;-73
2023/01/19 05:45:13;;;;;;;;;;;;;;;-4.14;91.08;95493.88;5079299;28;19956;-72
2023/01/19 05:47:39;;;;;;;;;;;;;;;-4.20;91.52;95504.69;5079674;28;19953;-72
2023/01/19 05:50:06;;;;;;;;;;;;;;;-4.23;91.33;95507.56;5079476;28;19948;-73
2023/01/19 05:52:31;;;;;;;;;;;;;;;-4.23;91.06;95497.34;5079955;28;19949;-72
2023/01/19 05:54:57;;;;;;;;;;;;;;;-4.23;90.64;95505.81;5079186;28;19952;-72
2023/01/19 05:57:23;;;;;;;;;;;;;;;-4.24;91.07;95511.06;5076825;28;20361;-72
2023/01/19 05:59:49;;;;;;;;;;;;;;;-4.24;90.92;95500.84;5076524;28;19952;-72
2023/01/19 06:02:15;;;;;;;;;;;;;;;-4.23;90.80;95512.69;5076324;28;20406;-72
2023/01/19 06:04:41;;;;;;;;;;;;;;;-4.24;90.31;95509.34;5076131;28;19956;-72
2023/01/19 06:07:07;;;;;;;;;;;;;;;-4.23;90.32;95503.25;5076163;28;20029;-72
2023/01/19 06:09:33;;;;;;;;;;;;;;;-4.24;90.24;95501.66;5076138;28;19957;-72
2023/01/19 06:11:58;;;;;;;;;;;;;;;-4.25;89.84;95509.47;5076156;28;20061;-72
2023/01/19 06:14:25;;;;;;;;;;;;;;;-4.28;89.89;95510.59;5076026;28;20017;-72
2023/01/19 06:16:51;;;;;;;;;;;;;;;-4.30;89.75;95513.28;5075905;28;19949;-72
2023/01/19 06:19:17;;;;;;;;;;;;;;;-4.32;89.82;95517.75;5074834;28;19972;-72
2023/01/19 06:21:48;;;;;;;;;;;;;;;-4.33;90.10;95523.81;5075762;28;19955;-72
2023/01/19 06:24:14;;;;;;;;;;;;;;;-4.34;90.34;95521.41;5075904;28;20318;-72
2023/01/19 06:26:42;;;;;;;;;;;;;;;-4.36;90.25;95521.56;5075812;28;19960;-72
2023/01/19 06:29:09;;;;;;;;;;;;;;;-4.35;90.59;95533.38;5075847;28;20327;-72
2023/01/19 06:31:35;;;;;;;;;;;;;;;-4.35;91.12;95528.25;5075717;28;19944;-72
2023/01/19 06:34:01;;;;;;;;;;;;;;;-4.32;91.40;95527.97;5075847;28;20502;-72
2023/01/19 06:36:27;;;;;;;;;;;;;;;-4.31;91.27;95528.78;5075460;28;20400;-72
2023/01/19 06:38:53;;;;;;;;;;;;;;;-4.31;91.80;95533.91;5075403;28;19955;-73
2023/01/19 06:41:19;;;;;;;;;;;;;;;-4.30;92.12;95533.75;5075400;28;19957;-73
2023/01/19 06:43:45;;;;;;;;;;;;;;;-4.30;91.41;95538.88;5075290;28;19969;-73
2023/01/19 06:46:12;;;;;;;;;;;;;;;-4.30;90.92;95531.19;5075543;28;19946;-73
2023/01/19 06:48:38;;;;;;;;;;;;;;;-4.30;90.93;95533.75;5075324;28;19966;-72
2023/01/19 06:51:05;;;;;;;;;;;;;;;-4.28;91.19;95539.53;5075227;28;19944;-72
2023/01/19 06:53:31;;;;;;;;;;;;;;;-4.30;90.76;95535.53;5075391;28;19966;-72
2023/01/19 06:56:01;;;;;;;;;;;;;;;-4.28;90.80;95541.28;5075133;28;20290;-73
2023/01/19 06:58:27;;;;;;;;;;;;;;;-4.30;90.90;95533.75;5075102;28;19946;-73
2023/01/19 07:00:53;;;;;;;;;;;;;;;-4.30;90.78;95538.88;5075295;28;19948;-73
2023/01/19 07:03:21;;;;;;;;;;;;;;;-4.30;90.41;95548.31;5073530;28;20015;-73
2023/01/19 07:05:50;;;;;;;;;;;;;;;-4.32;90.05;95540.00;5074983;28;20443;-73
2023/01/19 07:08:16;;;;;;;;;;;;;;;-4.32;90.30;95540.00;5074608;28;19957;-73
2023/01/19 07:10:41;;;;;;;;;;;;;;;-4.33;90.19;95538.38;5074898;28;19955;-73
2023/01/19 07:13:07;;;;;;;;;;;;;;;-4.32;90.26;95540.00;5074690;28;19958;-72
2023/01/19 07:15:33;;;;;;;;;;;;;;;-4.32;90.42;95545.91;5075006;28;19955;-72
2023/01/19 07:18:02;;;;;;;;;;;;;;;-4.32;90.48;95540.00;5074742;28;19983;-72
2023/01/19 07:20:28;;;;;;;;;;;;;;;-4.33;90.38;95541.72;5074643;28;19956;-73
2023/01/19 07:22:54;;;;;;;;;;;;;;;-4.33;90.17;95541.72;5074431;28;19968;-73
2023/01/19 07:25:20;;;;;;;;;;;;;;;-4.35;89.99;95545.38;5074679;28;20445;-72
2023/01/19 07:27:46;;;;;;;;;;;;;;;-4.38;89.75;95546.50;5073907;28;19948;-72
2023/01/19 07:30:14;;;;;;;;;;;;;;;-4.39;90.21;95542.34;5073896;28;19954;-72
2023/01/19 07:32:43;;;;;;;;;;;;;;;-4.39;89.88;95544.06;5073621;28;20418;-73
2023/01/19 07:35:09;;;;;;;;;;;;;;;-4.38;89.36;95541.38;5074479;28;20436;-72
2023/01/19 07:37:35;;;;;;;;;;;;;;;-4.38;89.76;95550.81;5074338;28;19952;-72
2023/01/19 07:40:01;;;;;;;;;;;;;;;-4.38;89.72;95549.03;5074724;28;20082;-72
2023/01/19 07:42:27;;;;;;;;;;;;;;;-4.36;89.44;95547.16;5073609;28;19970;-72
2023/01/19 07:44:53;;;;;;;;;;;;;;;-4.33;89.44;95556.28;5074053;28;19954;-72
2023/01/19 07:47:19;;;;;;;;;;;;;;;-4.31;89.55;95552.63;5073682;28;19963;-72
2023/01/19 07:49:45;;;;;;;;;;;;;;;-4.22;89.79;95557.78;5073996;28;20427;-73
2023/01/19 07:52:11;;;;;;;;;;;;;;;-4.10;89.98;95556.63;5073946;28;19961;-73
2023/01/19 07:54:37;;;;;;;;;;;;;;;-3.95;89.11;95565.41;5073397;28;19953;-73
2023/01/19 07:57:03;;;;;;;;;;;;;;;-3.85;88.62;95560.16;5073754;28;19956;-73
2023/01/19 07:59:29;;;;;;;;;;;;;;;-3.75;88.53;95557.50;5074297;28;20296;-72
2023/01/19 08:01:58;;;;;;;;;;;;;;;-3.58;88.34;95563.53;5073705;28;19955;-73
2023/01/19 08:04:27;;;;;;;;;;;;;;;-3.37;87.43;95555.47;5074134;28;19947;-73
2023/01/19 08:06:54;;;;;;;;;;;;;;;-3.12;86.98;95564.06;5073641;28;20420;-73
2023/01/19 08:09:20;;;;;;;;;;;;;;;-2.90;86.36;95557.56;5073660;28;19947;-73
2023/01/19 08:11:46;;;;;;;;;;;;;;;-2.79;85.31;95534.19;5074141;28;19954;-73
2023/01/19 08:14:11;;;;;;;;;;;;;;;-2.91;84.56;95527.75;5073571;28;19955;-74
2023/01/19 08:16:37;;;;;;;;;;;;;;;-3.03;83.97;95522.09;5073367;28;19993;-73
2023/01/19 08:19:03;;;;;;;;;;;;;;;-3.00;85.21;95544.88;5073738;28;19958;-73
2023/01/19 08:21:29;;;;;;;;;;;;;;;-2.78;84.32;95535.00;5073969;28;19944;-73
2023/01/19 08:23:55;;;;;;;;;;;;;;;-2.65;83.69;95532.75;5073885;28;20435;-73
2023/01/19 08:26:28;;;;;;;;;;;;;;;-2.54;82.83;95516.25;5073620;28;19952;-73
2023/01/19 08:28:56;;;;;;;;;;;;;;;-2.34;83.42;95519.31;5058845;28;19943;-73
2023/01/19 08:31:22;;;;;;;;;;;;;;;-2.11;82.08;95516.91;5073783;28;20402;-73
2023/01/19 08:33:48;;;;;;;;;;;;;;;-1.91;83.46;95525.06;5073649;28;20001;-73
2023/01/19 08:36:14;;;;;;;;;;;;;;;-1.76;81.88;95520.88;5073947;28;19966;-73
2023/01/19 08:38:42;;;;;;;;;;;;;;;-1.61;81.85;95515.06;5073639;28;19995;-73
2023/01/19 08:41:09;;;;;;;;;;;;;;;-1.52;80.19;95506.34;5073655;28;20416;-73
2023/01/19 08:43:36;;;;;;;;;;;;;;;-1.20;86.07;95559.44;5073368;28;19966;-73
2023/01/19 08:46:03;;;;;;;;;;;;;;;-0.88;80.74;95499.31;5073417;28;19953;-73
2023/01/19 08:48:29;;;;;;;;;;;;;;;-0.79;80.50;95505.22;5073567;28;20400;-73
2023/01/19 08:50:55;;;;;;;;;;;;;;;-0.86;76.93;95484.50;5073495;28;19949;-73
2023/01/19 08:53:22;;;;;;;;;;;;;;;-0.87;77.96;95485.47;5073939;28;19958;-73
2023/01/19 08:55:48;;;;;;;;;;;;;;;-0.85;78.34;95490.44;5073521;28;19949;-73
2023/01/19 08:58:14;;;;;;;;;;;;;;;-0.79;77.10;95476.91;5073216;28;19942;-73
2023/01/19 09:00:40;;;;;;;;;;;;;;;-1.11;77.23;95486.41;5073605;28;19946;-73
2023/01/19 09:03:07;;;;;;;;;;;;;;;-1.34;79.84;95521.56;5072048;28;19971;-73
2023/01/19 09:05:36;;;;;;;;;;;;;;;-1.49;79.43;95519.69;5072372;28;19947;-73
2023/01/19 09:08:02;;;;;;;;;;;;;;;-1.37;79.63;95520.09;5072273;28;19963;-73
2023/01/19 09:10:34;;;;;;;;;;;;;;;-1.08;79.69;95519.50;5073459;28;19955;-73
2023/01/19 09:13:04;;;;;;;;;;;;;;;-0.98;77.33;95496.16;5073062;28;20356;-73
2023/01/19 09:15:32;;;;;;;;;;;;;;;-0.92;79.63;95523.00;5073427;28;19978;-73
2023/01/19 09:17:58;;;;;;;;;;;;;;;-0.69;79.49;95526.41;5073066;28;20343;-73
2023/01/19 09:20:24;;;;;;;;;;;;;;;-0.46;78.98;95516.13;5073318;28;19994;-73
2023/01/19 09:22:50;;;;;;;;;;;;;;;-0.34;78.44;95506.19;5071967;28;20299;-73
2023/01/19 09:25:16;;;;;;;;;;;;;;;-0.41;77.51;95493.19;5073273;28;19997;-75
2023/01/19 09:27:42;;;;;;;;;;;;;;;-0.49;77.66;95502.75;5073196;28;19956;-73
2023/01/19 09:30:10;;;;;;;;;;;;;;;-0.37;78.53;95511.69;5072979;28;19980;-73
2023/01/19 09:32:36;;;;;;;;;;;;;;;-0.30;78.79;95514.38;5074273;28;19947;-73
2023/01/19 09:35:02;;;;;;;;;;;;;;;-0.36;78.11;95508.13;5075617;28;19943;-73
2023/01/19 09:37:27;;;;;;;;;;;;;;;-0.55;77.17;95499.09;5076671;28;19953;-73
2023/01/19 09:39:53;;;;;;;;;;;;;;;-0.82;76.55;95495.25;5076269;28;20005;-73
2023/01/19 09:42:25;;;;;;;;;;;;;;;-1.10;75.83;95498.28;5076753;28;19979;-73
2023/01/19 09:44:53;;;;;;;;;;;;;;;-1.39;78.59;95523.81;5076729;28;19961;-73
2023/01/19 09:47:22;;;;;;;;;;;;;;;-1.63;79.37;95539.16;5075815;28;19955;-73
2023/01/19 09:49:57;;;;;;;;;;;;;;;-1.76;81.66;95562.00;5076349;28;19959;-73
2023/01/19 09:52:23;;;;;;;;;;;;;;;-1.87;80.74;95559.75;5076281;28;19949;-73
2023/01/19 09:54:56;;;;;;;;;;;;;;;-1.96;82.37;95582.06;5075456;28;19946;-74
2023/01/19 09:57:26;;;;;;;;;;;;;;;-2.01;82.57;95573.25;5064769;28;20316;-73
2023/01/19 09:59:58;;;;;;;;;;;;;;;-2.04;95.26;95671.97;5076194;28;19942;-72
2023/01/19 10:02:31;;;;;;;;;;;;;;;-1.92;84.23;95560.22;5076142;28;19950;-73
2023/01/19 10:04:59;;;;;;;;;;;;;;;-2.05;83.56;95559.94;5074928;28;19949;-73
2023/01/19 10:07:43;;;;;;;;;;;;;;;-2.15;81.54;95543.88;5075976;28;19946;-73
2023/01/19 10:10:39;;;;;;;;;;;;;;;-2.33;83.15;95564.56;5075941;28;19963;-73
2023/01/19 10:13:26;;;;;;;;;;;;;;;-2.40;84.19;95576.44;5062957;28;20327;-73
2023/01/19 10:16:02;;;;;;;;;;;;;;;-2.40;84.17;95579.00;5076073;28;19951;-73
2023/01/19 10:18:46;;;;;;;;;;;;;;;-2.34;85.18;95580.94;5076596;28;19954;-73
2023/01/19 10:21:21;;;;;;;;;;;;;;;-2.28;84.72;95582.88;5074681;28;20322;-73
2023/01/19 10:23:49;;;;;;;;;;;;;;;-2.20;84.57;95579.53;5075760;28;19971;-73
2023/01/19 10:26:15;;;;;;;;;;;;;;;-2.25;84.02;95573.09;5075758;28;19946;-72
2023/01/19 10:28:42;;;;;;;;;;;;;;;-2.25;84.08;95564.56;5075903;28;19982;-73
2023/01/19 10:31:08;;;;;;;;;;;;;;;-2.23;83.74;95567.78;5075654;28;20295;-73
2023/01/19 10:33:35;;;;;;;;;;;;;;;-2.15;85.03;95577.25;5075860;28;19955;-73
2023/01/19 10:36:05;;;;;;;;;;;;;;;-2.12;83.39;95556.38;5075469;28;20435;-74
2023/01/19 10:38:32;;;;;;;;;;;;;;;-2.17;82.12;95559.44;5075659;28;19950;-73
2023/01/19 10:41:09;;;;;;;;;;;;;;;-2.16;89.21;95601.31;5075440;28;19955;-72
2023/01/19 10:43:35;;;;;;;;;;;;;;;-1.18;100.00;95647.53;5073719;28;19962;-72
2023/01/19 10:46:06;;;;;;;;;;;;;;;-0.64;95.74;95621.16;5074828;28;20486;-73
2023/01/19 10:48:37;;;;;;;;;;;;;;;-0.54;85.35;95565.09;5075619;28;19950;-73
2023/01/19 10:51:04;;;;;;;;;;;;;;;-0.67;81.01;95541.69;5075664;28;19956;-73
2023/01/19 10:53:30;;;;;;;;;;;;;;;-0.83;82.17;95542.56;5075443;28;19943;-73
2023/01/19 10:56:08;;;;;;;;;;;;;;;-0.90;81.47;95533.94;5074527;28;19953;-73
2023/01/19 10:58:34;;;;;;;;;;;;;;;-0.92;81.36;95546.16;5062816;28;19941;-73
2023/01/19 11:01:14;;;;;;;;;;;;;;;-0.92;82.99;95549.53;5075390;28;19996;-73
2023/01/19 11:03:40;;;;;;;;;;;;;;;-0.86;82.86;95554.00;5073783;28;19959;-73
2023/01/19 11:06:12;;;;;;;;;;;;;;;-0.74;83.32;95559.56;5073274;28;19990;-73
2023/01/19 11:08:38;;;;;;;;;;;;;;;-0.69;83.30;95564.22;5074851;28;19953;-73
2023/01/19 11:11:06;;;;;;;;;;;;;;;-0.65;83.71;95566.28;5074962;28;19955;-73
2023/01/19 11:13:33;;;;;;;;;;;;;;;-0.42;100.00;95630.69;5074718;28;19956;-73
2023/01/19 11:16:04;;;;;;;;;;;;;;;0.05;84.07;95523.28;5074744;28;19951;-73
2023/01/19 11:18:29;;;;;;;;;;;;;;;0.28;81.93;95523.22;5075117;28;19952;-73
2023/01/19 11:20:58;;;;;;;;;;;;;;;0.69;98.40;95601.97;5074690;28;19999;-73
2023/01/19 11:23:26;;;;;;;;;;;;;;;0.74;77.16;95471.44;5073423;28;19957;-73
2023/01/19 11:25:52;;;;;;;;;;;;;;;0.70;79.78;95500.38;5074718;28;20440;-73
2023/01/19 11:28:21;;;;;;;;;;;;;;;0.51;77.18;95484.47;5074407;28;20399;-73
2023/01/19 11:30:54;;;;;;;;;;;;;;;0.23;79.13;95502.31;5074574;28;19947;-73
2023/01/19 11:33:32;;;;;;;;;;;;;;;0.06;79.33;95506.03;5074432;28;19956;-73
2023/01/19 11:36:03;;;;;;;;;;;;;;;-0.15;78.68;95497.19;5074621;28;19944;-72
2023/01/19 11:38:28;;;;;;;;;;;;;;;-0.19;81.01;95529.41;5074470;28;19949;-73
2023/01/19 11:40:56;;;;;;;;;;;;;;;-0.11;80.88;95526.78;5072898;28;20304;-73
2023/01/19 11:43:23;;;;;;;;;;;;;;;-0.09;81.30;95529.19;5073863;28;19972;-72
2023/01/19 11:45:49;;;;;;;;;;;;;;;-0.16;80.81;95521.34;5073980;28;19957;-72
2023/01/19 11:48:21;;;;;;;;;;;;;;;-0.15;81.37;95532.47;5073116;28;19973;-72
2023/01/19 11:50:48;;;;;;;;;;;;;;;-0.13;82.77;95538.25;5074386;28;20402;-72
2023/01/19 11:53:27;;;;;;;;;;;;;;;-0.14;81.14;95519.41;5072804;28;19947;-72
2023/01/19 11:55:55;;;;;;;;;;;;;;;-0.13;82.45;95536.47;5073258;28;19946;-72
2023/01/19 11:58:22;;;;;;;;;;;;;;;-0.11;83.85;95539.66;5073925;28;19946;-72
2023/01/19 12:01:06;;;;;;;;;;;;;;;-0.05;83.61;95526.09;5073812;28;19973;-72
2023/01/19 12:03:35;;;;;;;;;;;;;;;0.04;85.54;95544.06;5073926;28;19965;-72
2023/01/19 12:06:10;;;;;;;;;;;;;;;0.13;83.86;95533.50;5073326;28;19963;-72
2023/01/19 12:08:42;;;;;;;;;;;;;;;0.11;83.36;95532.88;5074141;28;19972;-72
2023/01/19 12:11:11;;;;;;;;;;;;;;;0.14;83.97;95534.31;5074282;28;19961;-72
2023/01/19 12:13:39;;;;;;;;;;;;;;;0.20;83.59;95529.25;5073880;28;19945;-72
2023/01/19 12:16:04;;;;;;;;;;;;;;;0.17;84.27;95534.75;5073648;28;19947;-72
2023/01/19 12:18:34;;;;;;;;;;;;;;;0.17;84.09;95528.81;5073510;28;20318;-72
2023/01/19 12:21:00;;;;;;;;;;;;;;;0.25;83.97;95530.50;5073430;28;19951;-72
2023/01/19 12:23:44;;;;;;;;;;;;;;;0.24;84.02;95537.44;5073626;28;19963;-72
2023/01/19 12:26:20;;;;;;;;;;;;;;;0.27;84.47;95541.44;5073554;28;19949;-72
2023/01/19 12:28:47;;;;;;;;;;;;;;;0.26;84.57;95542.44;5073614;28;19951;-72
2023/01/19 12:31:17;;;;;;;;;;;;;;;0.29;84.93;95542.84;5073211;28;19961;-72
2023/01/19 12:33:43;;;;;;;;;;;;;;;0.30;84.06;95526.44;5073585;28;20396;-72
2023/01/19 12:36:15;;;;;;;;;;;;;;;0.26;84.79;95540.66;5074024;28;20350;-72
2023/01/19 12:38:51;;;;;;;;;;;;;;;0.31;85.21;95545.28;5073287;28;20321;-73
2023/01/19 12:41:17;;;;;;;;;;;;;;;0.37;85.71;95547.16;5073194;28;19955;-72
2023/01/19 12:43:43;;;;;;;;;;;;;;;0.37;85.69;95542.78;5073126;28;19966;-72
2023/01/19 12:46:19;;;;;;;;;;;;;;;0.38;85.36;95551.34;5073184;28;20055;-73
2023/01/19 12:48:45;;;;;;;;;;;;;;;0.37;86.35;95554.88;5072844;28;19947;-72
2023/01/19 12:51:21;;;;;;;;;;;;;;;0.42;86.80;95559.50;5073419;28;19999;-72
2023/01/19 12:53:52;;;;;;;;;;;;;;;0.42;86.69;95557.75;5071993;28;19943;-72
2023/01/19 12:56:18;;;;;;;;;;;;;;;0.43;86.66;95561.13;5073228;28;19952;-72
2023/01/19 12:58:48;;;;;;;;;;;;;;;0.39;87.02;95564.03;5073102;28;20411;-72